KGWB

De Kalb County Airport

Auburn, Indiana, USA
METAR KGWB 151335Z AUTO 22006KT 10SM OVC034 M04/M08 A2992 RMK AO2
Observed Flight Rules
Dec-15 @ 13:35 UTC (16 minutes ago) Visual Flight Rules
Wind Visibility Clouds
220° at 6 knots 10 miles
  • Overcast at 3,400' AGL
Temperatures Readings
Current -4°C / 25°F
Dewpoint -8°C / 18°F
Humidity 74%
Altimeter 29.92" Hg
Pressure 1013 hPa
Elevation 269
METAR KGWB 151335Z AUTO 22006KT 10SM OVC034 M04/M08 A2992 RMK AO2
Observed Flight Rules
Dec-15 @ 13:35 UTC
(16 minutes ago)
VFR
Wind Visibility
220° at 6 knots 10 miles
Clouds
  • Overcast at 3,400' AGL
Temperature Dewpoint
-4°C / 25°F -8°C / 18°F
Humidity Altimeter Pressure
74% 29.92" Hg 1013 hPa